Terminal Aerodrome Forecast
Issued by NWS

Home | Current Version | Previous Version | Text Only | Print | Product List | Glossary On
Versions: 1 2 3 4 5 6 7 8 9 10 11 12 13 14 15 16
000
FTUS43 KGLD 260558 CCA
TAFMCK
TAF COR
KMCK 260558Z 2606/2706 06007KT P6SM SKC
     FM260900 VRB05KT 3SM BR SCT002
     FM261200 VRB03KT 1/2SM FG BKN002
     FM261400 30007KT P6SM SCT300
     FM270100 VRB03KT P6SM SCT300=

USA.gov is the U.S. government's official web portal to all federal, state and local government web resources and services.